sensor_id;sensor_type;location;lat;lon;timestamp;pressure;altitude;pressure_sealevel;temperature;humidity
59240;BME280;45010;53.640;10.578;2023-02-14T00:00:15;103085.69;;;25.17;33.74
59240;BME280;45010;53.640;10.578;2023-02-14T00:03:15;103090.84;;;25.19;33.38
59240;BME280;45010;53.640;10.578;2023-02-14T00:06:16;103080.69;;;25.14;33.45
59240;BME280;45010;53.640;10.578;2023-02-14T00:09:17;103077.84;;;25.16;33.53
59240;BME280;45010;53.640;10.578;2023-02-14T00:12:18;103090.50;;;25.22;33.68
59240;BME280;45010;53.640;10.578;2023-02-14T00:15:18;103078.81;;;25.23;33.65
59240;BME280;45010;53.640;10.578;2023-02-14T00:18:21;103078.81;;;25.23;33.42
59240;BME280;45010;53.640;10.578;2023-02-14T00:21:22;103085.78;;;25.24;33.82
59240;BME280;45010;53.640;10.578;2023-02-14T00:24:24;103042.84;;;25.10;33.73
59240;BME280;45010;53.640;10.578;2023-02-14T00:27:25;103071.44;;;25.25;33.56
59240;BME280;45010;53.640;10.578;2023-02-14T00:30:25;103077.63;;;25.25;33.55
59240;BME280;45010;53.640;10.578;2023-02-14T00:33:25;103071.44;;;25.25;33.95
59240;BME280;45010;53.640;10.578;2023-02-14T00:36:26;103074.78;;;25.27;33.68
59240;BME280;45010;53.640;10.578;2023-02-14T00:39:26;103073.47;;;25.23;33.63
59240;BME280;45010;53.640;10.578;2023-02-14T00:42:26;103071.09;;;25.28;33.60
59240;BME280;45010;53.640;10.578;2023-02-14T00:45:27;103069.06;;;25.30;33.58
59240;BME280;45010;53.640;10.578;2023-02-14T00:48:27;103076.06;;;25.31;33.40
59240;BME280;45010;53.640;10.578;2023-02-14T00:51:28;103074.22;;;25.32;33.59
59240;BME280;45010;53.640;10.578;2023-02-14T00:54:28;103076.06;;;25.31;33.66
59240;BME280;45010;53.640;10.578;2023-02-14T00:57:28;103077.75;;;25.32;33.56
59240;BME280;45010;53.640;10.578;2023-02-14T01:00:29;103072.56;;;25.31;33.42
59240;BME280;45010;53.640;10.578;2023-02-14T01:03:29;103076.06;;;25.31;33.45
59240;BME280;45010;53.640;10.578;2023-02-14T01:06:30;103058.75;;;25.27;33.31
59240;BME280;45010;53.640;10.578;2023-02-14T01:09:30;103076.06;;;25.31;33.23
59240;BME280;45010;53.640;10.578;2023-02-14T01:12:30;103066.38;;;25.30;32.87
59240;BME280;45010;53.640;10.578;2023-02-14T01:15:31;103048.41;;;25.24;33.19
59240;BME280;45010;53.640;10.578;2023-02-14T01:18:32;103059.38;;;25.29;33.59
59240;BME280;45010;53.640;10.578;2023-02-14T01:21:33;103052.72;;;25.25;33.68
59240;BME280;45010;53.640;10.578;2023-02-14T01:24:34;103051.75;;;25.26;33.49
59240;BME280;45010;53.640;10.578;2023-02-14T01:27:34;103054.69;;;25.31;33.35
59240;BME280;45010;53.640;10.578;2023-02-14T01:30:35;103059.22;;;25.31;33.48
59240;BME280;45010;53.640;10.578;2023-02-14T01:33:37;103060.03;;;25.31;33.30
59240;BME280;45010;53.640;10.578;2023-02-14T01:36:38;103050.06;;;25.25;33.58
59240;BME280;45010;53.640;10.578;2023-02-14T01:39:39;103056.72;;;25.29;33.63
59240;BME280;45010;53.640;10.578;2023-02-14T01:42:40;103051.03;;;25.32;33.56
59240;BME280;45010;53.640;10.578;2023-02-14T01:45:40;103050.03;;;25.33;33.29
59240;BME280;45010;53.640;10.578;2023-02-14T01:48:40;103047.34;;;25.33;33.12
59240;BME280;45010;53.640;10.578;2023-02-14T01:51:45;103045.69;;;25.32;33.22
59240;BME280;45010;53.640;10.578;2023-02-14T01:55:14;103041.34;;;25.31;33.04
59240;BME280;45010;53.640;10.578;2023-02-14T01:58:23;103039.03;;;25.28;33.12
59240;BME280;45010;53.640;10.578;2023-02-14T02:01:24;103032.03;;;25.27;32.95
59240;BME280;45010;53.640;10.578;2023-02-14T02:04:28;103034.88;;;25.25;33.16
59240;BME280;45010;53.640;10.578;2023-02-14T02:07:31;103026.44;;;25.14;33.12
59240;BME280;45010;53.640;10.578;2023-02-14T02:10:31;103041.75;;;25.20;33.01
59240;BME280;45010;53.640;10.578;2023-02-14T02:13:32;103037.63;;;25.17;33.13
59240;BME280;45010;53.640;10.578;2023-02-14T02:23:38;103019.88;;;25.01;33.15
59240;BME280;45010;53.640;10.578;2023-02-14T02:27:05;103027.53;;;25.04;33.05
59240;BME280;45010;53.640;10.578;2023-02-14T02:30:54;103031.38;;;25.02;33.06
59240;BME280;45010;53.640;10.578;2023-02-14T02:40:34;103018.28;;;24.92;33.01
59240;BME280;45010;53.640;10.578;2023-02-14T02:43:52;103016.97;;;24.88;33.01
59240;BME280;45010;53.640;10.578;2023-02-14T02:47:05;103015.47;;;24.85;33.08
59240;BME280;45010;53.640;10.578;2023-02-14T02:50:29;103017.16;;;24.78;33.12
59240;BME280;45010;53.640;10.578;2023-02-14T02:53:54;103022.31;;;24.79;33.13
59240;BME280;45010;53.640;10.578;2023-02-14T02:57:00;103008.38;;;24.69;33.09
59240;BME280;45010;53.640;10.578;2023-02-14T03:00:04;102996.75;;;24.62;33.15
59240;BME280;45010;53.640;10.578;2023-02-14T03:03:06;103018.72;;;24.72;33.00
59240;BME280;45010;53.640;10.578;2023-02-14T03:06:25;103013.69;;;24.69;32.86
59240;BME280;45010;53.640;10.578;2023-02-14T03:15:52;103018.09;;;24.62;33.17
59240;BME280;45010;53.640;10.578;2023-02-14T03:19:09;103013.09;;;24.58;33.14
59240;BME280;45010;53.640;10.578;2023-02-14T03:22:40;103011.44;;;24.57;33.37
59240;BME280;45010;53.640;10.578;2023-02-14T03:25:52;103011.78;;;24.54;33.42
59240;BME280;45010;53.640;10.578;2023-02-14T03:29:12;103008.44;;;24.52;33.20
59240;BME280;45010;53.640;10.578;2023-02-14T03:32:34;102998.16;;;24.49;33.21
59240;BME280;45010;53.640;10.578;2023-02-14T03:35:47;102994.81;;;24.47;33.25
59240;BME280;45010;53.640;10.578;2023-02-14T03:38:58;102996.81;;;24.45;33.29
59240;BME280;45010;53.640;10.578;2023-02-14T03:42:04;102993.50;;;24.43;33.42
59240;BME280;45010;53.640;10.578;2023-02-14T03:45:09;102978.19;;;24.37;33.23
59240;BME280;45010;53.640;10.578;2023-02-14T03:48:13;102981.88;;;24.36;33.54
59240;BME280;45010;53.640;10.578;2023-02-14T03:51:17;102983.16;;;24.40;33.42
59240;BME280;45010;53.640;10.578;2023-02-14T03:54:20;102976.19;;;24.39;33.22
59240;BME280;45010;53.640;10.578;2023-02-14T03:57:31;102983.53;;;24.37;33.55
59240;BME280;45010;53.640;10.578;2023-02-14T04:00:35;102984.53;;;24.36;33.34
59240;BME280;45010;53.640;10.578;2023-02-14T04:03:39;102984.56;;;24.27;33.62
59240;BME280;45010;53.640;10.578;2023-02-14T04:06:40;102988.56;;;24.31;33.48
59240;BME280;45010;53.640;10.578;2023-02-14T04:09:41;102986.91;;;24.30;33.42
59240;BME280;45010;53.640;10.578;2023-02-14T04:12:42;102980.88;;;24.28;33.56
59240;BME280;45010;53.640;10.578;2023-02-14T04:15:43;102978.41;;;24.27;33.55
59240;BME280;45010;53.640;10.578;2023-02-14T04:18:43;102978.59;;;24.25;33.53
59240;BME280;45010;53.640;10.578;2023-02-14T04:22:02;102976.09;;;24.24;33.54
59240;BME280;45010;53.640;10.578;2023-02-14T04:25:03;102969.25;;;24.21;33.51
59240;BME280;45010;53.640;10.578;2023-02-14T04:28:03;102978.28;;;24.20;33.55
59240;BME280;45010;53.640;10.578;2023-02-14T04:31:04;102969.63;;;24.18;33.63
59240;BME280;45010;53.640;10.578;2023-02-14T04:34:05;102967.94;;;24.17;33.68
59240;BME280;45010;53.640;10.578;2023-02-14T04:37:06;102966.28;;;24.16;33.76
59240;BME280;45010;53.640;10.578;2023-02-14T04:40:07;102966.97;;;24.10;33.53
59240;BME280;45010;53.640;10.578;2023-02-14T04:43:08;102966.63;;;24.13;33.62
59240;BME280;45010;53.640;10.578;2023-02-14T04:46:08;102970.31;;;24.12;33.85
59240;BME280;45010;53.640;10.578;2023-02-14T04:49:08;102967.81;;;24.10;33.57
59240;BME280;45010;53.640;10.578;2023-02-14T04:52:09;102969.81;;;24.08;33.57
59240;BME280;45010;53.640;10.578;2023-02-14T04:55:09;102944.69;;;23.94;33.75
59240;BME280;45010;53.640;10.578;2023-02-14T04:58:09;102965.81;;;24.04;33.90
59240;BME280;45010;53.640;10.578;2023-02-14T05:01:10;102962.28;;;24.03;33.68
59240;BME280;45010;53.640;10.578;2023-02-14T05:04:10;102967.63;;;24.03;33.62
59240;BME280;45010;53.640;10.578;2023-02-14T05:07:10;102958.97;;;24.01;33.71
59240;BME280;45010;53.640;10.578;2023-02-14T05:10:11;102962.66;;;24.00;33.80
59240;BME280;45010;53.640;10.578;2023-02-14T05:13:11;102963.34;;;23.94;33.78
59240;BME280;45010;53.640;10.578;2023-02-14T05:16:11;102964.66;;;23.98;33.90
59240;BME280;45010;53.640;10.578;2023-02-14T05:19:12;102961.31;;;23.96;33.76
59240;BME280;45010;53.640;10.578;2023-02-14T05:22:13;102965.00;;;23.95;34.00
59240;BME280;45010;53.640;10.578;2023-02-14T05:25:13;102955.34;;;23.94;33.98
59240;BME280;45010;53.640;10.578;2023-02-14T05:28:14;102958.19;;;23.92;34.06
59240;BME280;45010;53.640;10.578;2023-02-14T05:31:14;102953.84;;;23.91;34.08
59240;BME280;45010;53.640;10.578;2023-02-14T05:34:14;102957.53;;;23.90;34.13
59240;BME280;45010;53.640;10.578;2023-02-14T05:37:15;102953.38;;;23.88;33.76
59240;BME280;45010;53.640;10.578;2023-02-14T05:40:15;102937.22;;;23.81;33.95
59240;BME280;45010;53.640;10.578;2023-02-14T05:43:16;102953.38;;;23.88;34.22
59240;BME280;45010;53.640;10.578;2023-02-14T05:46:16;102949.88;;;23.87;34.03
59240;BME280;45010;53.640;10.578;2023-02-14T05:49:16;102945.53;;;23.86;33.89
59240;BME280;45010;53.640;10.578;2023-02-14T05:52:17;102947.38;;;23.86;33.98
59240;BME280;45010;53.640;10.578;2023-02-14T05:55:17;102945.72;;;23.85;33.99
59240;BME280;45010;53.640;10.578;2023-02-14T05:58:17;102946.72;;;23.84;33.97
59240;BME280;45010;53.640;10.578;2023-02-14T06:01:18;102942.91;;;23.78;34.02
59240;BME280;45010;53.640;10.578;2023-02-14T06:04:18;102954.06;;;23.82;34.34
59240;BME280;45010;53.640;10.578;2023-02-14T06:07:18;102947.03;;;23.81;34.46
59240;BME280;45010;53.640;10.578;2023-02-14T06:10:21;102944.09;;;23.75;34.38
59240;BME280;45010;53.640;10.578;2023-02-14T06:13:21;102945.38;;;23.80;34.39
59240;BME280;45010;53.640;10.578;2023-02-14T06:16:23;102947.41;;;23.77;34.77
59240;BME280;45010;53.640;10.578;2023-02-14T06:19:24;102948.25;;;23.78;35.11
59240;BME280;45010;53.640;10.578;2023-02-14T06:22:24;102934.13;;;23.69;34.98
59240;BME280;45010;53.640;10.578;2023-02-14T06:25:25;102952.72;;;23.77;34.90
59240;BME280;45010;53.640;10.578;2023-02-14T06:28:25;102926.13;;;23.61;34.98
59240;BME280;45010;53.640;10.578;2023-02-14T06:31:25;102949.41;;;23.75;34.90
59240;BME280;45010;53.640;10.578;2023-02-14T06:34:26;102945.06;;;23.74;34.78
59240;BME280;45010;53.640;10.578;2023-02-14T06:37:26;102949.75;;;23.72;34.94
59240;BME280;45010;53.640;10.578;2023-02-14T06:40:26;102937.25;;;23.64;34.81
59240;BME280;45010;53.640;10.578;2023-02-14T06:43:27;102957.91;;;23.71;34.78
59240;BME280;45010;53.640;10.578;2023-02-14T06:46:27;102961.41;;;23.71;34.77
59240;BME280;45010;53.640;10.578;2023-02-14T06:49:27;102957.09;;;23.70;34.87
59240;BME280;45010;53.640;10.578;2023-02-14T06:52:28;102951.75;;;23.70;35.05
59240;BME280;45010;53.640;10.578;2023-02-14T06:55:28;102952.75;;;23.69;34.75
59240;BME280;45010;53.640;10.578;2023-02-14T06:58:29;102955.09;;;23.64;34.71
59240;BME280;45010;53.640;10.578;2023-02-14T07:01:29;102969.72;;;23.68;34.72
59240;BME280;45010;53.640;10.578;2023-02-14T07:04:29;102956.59;;;23.67;34.81
59240;BME280;45010;53.640;10.578;2023-02-14T07:07:30;102958.25;;;23.68;34.83
59240;BME280;45010;53.640;10.578;2023-02-14T07:10:30;102946.94;;;23.57;34.76
59240;BME280;45010;53.640;10.578;2023-02-14T07:13:32;102951.75;;;23.62;34.78
59240;BME280;45010;53.640;10.578;2023-02-14T07:16:32;102961.06;;;23.66;34.84
59240;BME280;45010;53.640;10.578;2023-02-14T07:19:32;102958.41;;;23.66;34.84
59240;BME280;45010;53.640;10.578;2023-02-14T07:22:33;102940.28;;;23.61;35.11
59240;BME280;45010;53.640;10.578;2023-02-14T07:25:34;102950.41;;;23.66;34.86
59240;BME280;45010;53.640;10.578;2023-02-14T07:28:34;102953.09;;;23.66;34.79
59240;BME280;45010;53.640;10.578;2023-02-14T07:31:34;102948.75;;;23.65;35.01
59240;BME280;45010;53.640;10.578;2023-02-14T07:34:35;102948.75;;;23.65;34.90
59240;BME280;45010;53.640;10.578;2023-02-14T07:37:35;102948.75;;;23.65;34.76
59240;BME280;45010;53.640;10.578;2023-02-14T07:40:35;102948.75;;;23.65;34.84
59240;BME280;45010;53.640;10.578;2023-02-14T07:43:36;102952.44;;;23.64;35.06
59240;BME280;45010;53.640;10.578;2023-02-14T07:46:36;102952.44;;;23.64;34.68
59240;BME280;45010;53.640;10.578;2023-02-14T07:49:36;102956.09;;;23.63;35.01
59240;BME280;45010;53.640;10.578;2023-02-14T07:52:37;102950.78;;;23.63;34.87
59240;BME280;45010;53.640;10.578;2023-02-14T07:55:37;102950.78;;;23.63;35.03
59240;BME280;45010;53.640;10.578;2023-02-14T07:58:38;102950.78;;;23.63;34.98
59240;BME280;45010;53.640;10.578;2023-02-14T08:01:38;102951.75;;;23.62;35.03
59240;BME280;45010;53.640;10.578;2023-02-14T08:04:39;102956.09;;;23.63;35.01
59240;BME280;45010;53.640;10.578;2023-02-14T08:07:39;102933.97;;;23.54;34.95
59240;BME280;45010;53.640;10.578;2023-02-14T08:10:40;102944.59;;;23.62;35.04
59240;BME280;45010;53.640;10.578;2023-02-14T08:13:40;102949.09;;;23.62;34.93
59240;BME280;45010;53.640;10.578;2023-02-14T08:16:40;102939.13;;;23.56;35.12
59240;BME280;45010;53.640;10.578;2023-02-14T08:19:41;102949.09;;;23.62;34.91
59240;BME280;45010;53.640;10.578;2023-02-14T08:22:41;102951.75;;;23.62;35.21
59240;BME280;45010;53.640;10.578;2023-02-14T08:25:41;102956.75;;;23.57;35.19
59240;BME280;45010;53.640;10.578;2023-02-14T08:28:42;102955.44;;;23.61;35.59
59240;BME280;45010;53.640;10.578;2023-02-14T08:31:42;102955.75;;;23.66;35.77
59240;BME280;45010;53.640;10.578;2023-02-14T08:34:43;102949.44;;;23.59;36.01
59240;BME280;45010;53.640;10.578;2023-02-14T08:37:43;102951.09;;;23.60;36.31
59240;BME280;45010;53.640;10.578;2023-02-14T08:40:43;102952.44;;;23.64;36.12
59240;BME280;45010;53.640;10.578;2023-02-14T08:43:44;102954.75;;;23.67;36.02
59240;BME280;45010;53.640;10.578;2023-02-14T08:46:44;102956.25;;;23.70;36.14
59240;BME280;45010;53.640;10.578;2023-02-14T08:49:44;102953.91;;;23.75;36.08
59240;BME280;45010;53.640;10.578;2023-02-14T08:52:45;102952.72;;;23.77;36.14
59240;BME280;45010;53.640;10.578;2023-02-14T08:55:45;102950.72;;;23.80;35.98
59240;BME280;45010;53.640;10.578;2023-02-14T08:58:45;102954.88;;;23.82;35.72
59240;BME280;45010;53.640;10.578;2023-02-14T09:01:46;102950.03;;;23.86;35.82
59240;BME280;45010;53.640;10.578;2023-02-14T09:04:46;102953.38;;;23.88;35.87
59240;BME280;45010;53.640;10.578;2023-02-14T09:07:46;102956.69;;;23.90;35.65
59240;BME280;45010;53.640;10.578;2023-02-14T09:10:47;102954.66;;;23.92;35.20
59240;BME280;45010;53.640;10.578;2023-02-14T09:13:49;102957.00;;;23.95;35.43
59240;BME280;45010;53.640;10.578;2023-02-14T09:16:50;102952.31;;;23.97;35.59
59240;BME280;45010;53.640;10.578;2023-02-14T09:19:50;102957.31;;;24.00;35.50
59240;BME280;45010;53.640;10.578;2023-02-14T09:22:54;102948.66;;;23.98;34.99
59240;BME280;45010;53.640;10.578;2023-02-14T09:26:03;102936.34;;;23.97;34.82
59240;BME280;45010;53.640;10.578;2023-02-14T09:29:04;102958.31;;;24.08;35.25
59240;BME280;45010;53.640;10.578;2023-02-14T09:32:04;102944.84;;;24.09;35.04
59240;BME280;45010;53.640;10.578;2023-02-14T09:35:05;102959.47;;;24.13;35.36
59240;BME280;45010;53.640;10.578;2023-02-14T09:38:06;102945.31;;;24.13;35.28
59240;BME280;45010;53.640;10.578;2023-02-14T09:41:08;102949.09;;;24.18;34.43
59240;BME280;45010;53.640;10.578;2023-02-14T09:44:23;102940.28;;;24.18;33.31
59240;BME280;45010;53.640;10.578;2023-02-14T09:47:34;102942.97;;;24.18;32.46
59240;BME280;45010;53.640;10.578;2023-02-14T09:53:49;102942.97;;;24.18;31.26
59240;BME280;45010;53.640;10.578;2023-02-14T09:57:10;102942.97;;;24.18;30.86
59240;BME280;45010;53.640;10.578;2023-02-14T10:00:20;102942.13;;;24.17;30.53
59240;BME280;45010;53.640;10.578;2023-02-14T10:07:10;102934.97;;;24.18;30.22
59240;BME280;45010;53.640;10.578;2023-02-14T10:10:41;102925.66;;;24.14;29.80
59240;BME280;45010;53.640;10.578;2023-02-14T10:13:58;102926.97;;;24.18;29.71
59240;BME280;45010;53.640;10.578;2023-02-14T10:17:09;102906.16;;;24.05;29.79
59240;BME280;45010;53.640;10.578;2023-02-14T10:20:25;102930.28;;;24.20;29.61
59240;BME280;45010;53.640;10.578;2023-02-14T10:23:29;102930.28;;;24.20;29.73
59240;BME280;45010;53.640;10.578;2023-02-14T10:26:39;102928.63;;;24.19;29.36
59240;BME280;45010;53.640;10.578;2023-02-14T10:29:40;102924.28;;;24.18;29.35
59240;BME280;45010;53.640;10.578;2023-02-14T10:39:34;102918.28;;;24.16;29.19
59240;BME280;45010;53.640;10.578;2023-02-14T10:43:03;102910.50;;;24.14;29.35
59240;BME280;45010;53.640;10.578;2023-02-14T10:46:36;102911.94;;;24.17;29.56
59240;BME280;45010;53.640;10.578;2023-02-14T10:50:10;102900.31;;;24.18;29.73
59240;BME280;45010;53.640;10.578;2023-02-14T10:53:17;102901.97;;;24.19;30.17
59240;BME280;45010;53.640;10.578;2023-02-14T10:56:36;102901.97;;;24.19;30.46
59240;BME280;45010;53.640;10.578;2023-02-14T11:03:02;102899.94;;;24.21;31.07
59240;BME280;45010;53.640;10.578;2023-02-14T11:06:06;102896.25;;;24.22;31.41
59240;BME280;45010;53.640;10.578;2023-02-14T11:09:09;102897.91;;;24.23;31.32
59240;BME280;45010;53.640;10.578;2023-02-14T11:12:11;102894.28;;;24.24;31.28
59240;BME280;45010;53.640;10.578;2023-02-14T11:18:23;102886.44;;;24.23;31.57
59240;BME280;45010;53.640;10.578;2023-02-14T11:21:36;102886.28;;;24.24;31.45
59240;BME280;45010;53.640;10.578;2023-02-14T11:24:38;102885.25;;;24.25;31.35
59240;BME280;45010;53.640;10.578;2023-02-14T11:27:42;102886.22;;;24.33;31.69
59240;BME280;45010;53.640;10.578;2023-02-14T11:30:49;102890.38;;;24.35;31.69
59240;BME280;45010;53.640;10.578;2023-02-14T11:33:50;102878.50;;;24.38;31.80
59240;BME280;45010;53.640;10.578;2023-02-14T11:36:53;102857.09;;;24.23;31.86
59240;BME280;45010;53.640;10.578;2023-02-14T11:39:55;102865.47;;;24.43;31.82
59240;BME280;45010;53.640;10.578;2023-02-14T11:43:16;102867.47;;;24.41;31.68
59240;BME280;45010;53.640;10.578;2023-02-14T11:49:26;102870.09;;;24.49;31.69
59240;BME280;45010;53.640;10.578;2023-02-14T11:52:28;102854.09;;;24.49;31.35
59240;BME280;45010;53.640;10.578;2023-02-14T11:55:32;102822.22;;;24.33;30.75
59240;BME280;45010;53.640;10.578;2023-02-14T11:58:38;102840.75;;;24.49;30.71
59240;BME280;45010;53.640;10.578;2023-02-14T12:01:39;102830.13;;;24.41;30.29
59240;BME280;45010;53.640;10.578;2023-02-14T12:04:43;102830.81;;;24.43;30.16
59240;BME280;45010;53.640;10.578;2023-02-14T12:07:44;102816.16;;;24.39;29.86
59240;BME280;45010;53.640;10.578;2023-02-14T12:10:59;102827.06;;;24.52;29.85
59240;BME280;45010;53.640;10.578;2023-02-14T12:14:00;102829.72;;;24.52;29.57
59240;BME280;45010;53.640;10.578;2023-02-14T12:20:15;102811.44;;;24.49;29.66
59240;BME280;45010;53.640;10.578;2023-02-14T12:23:37;102807.38;;;24.53;29.44
59240;BME280;45010;53.640;10.578;2023-02-14T12:27:25;102804.53;;;24.55;29.22
59240;BME280;45010;53.640;10.578;2023-02-14T12:30:32;102800.84;;;24.56;29.48
59240;BME280;45010;53.640;10.578;2023-02-14T12:33:32;102803.34;;;24.57;29.62
59240;BME280;45010;53.640;10.578;2023-02-14T12:39:53;102795.16;;;24.59;29.05
59240;BME280;45010;53.640;10.578;2023-02-14T12:50:26;102780.00;;;24.60;29.03
59240;BME280;45010;53.640;10.578;2023-02-14T13:06:28;102758.75;;;24.66;28.90
59240;BME280;45010;53.640;10.578;2023-02-14T13:13:06;102748.53;;;24.70;28.82
59240;BME280;45010;53.640;10.578;2023-02-14T13:19:40;102726.28;;;24.63;28.72
59240;BME280;45010;53.640;10.578;2023-02-14T13:22:45;102745.69;;;24.71;28.85
59240;BME280;45010;53.640;10.578;2023-02-14T13:25:50;102744.50;;;24.74;28.85
59240;BME280;45010;53.640;10.578;2023-02-14T13:29:09;102734.38;;;24.69;28.96
59240;BME280;45010;53.640;10.578;2023-02-14T13:32:13;102736.50;;;24.74;28.84
59240;BME280;45010;53.640;10.578;2023-02-14T13:35:17;102733.81;;;24.74;28.68
59240;BME280;45010;53.640;10.578;2023-02-14T13:38:19;102731.16;;;24.74;29.09
59240;BME280;45010;53.640;10.578;2023-02-14T13:41:21;102716.53;;;24.70;28.99
59240;BME280;45010;53.640;10.578;2023-02-14T13:47:37;102719.13;;;24.78;29.67
59240;BME280;45010;53.640;10.578;2023-02-14T13:50:40;102708.34;;;24.71;29.86
59240;BME280;45010;53.640;10.578;2023-02-14T13:53:48;102701.44;;;24.77;29.83
59240;BME280;45010;53.640;10.578;2023-02-14T13:56:50;102706.06;;;24.83;29.85
59240;BME280;45010;53.640;10.578;2023-02-14T14:06:28;102696.69;;;24.88;29.83
59240;BME280;45010;53.640;10.578;2023-02-14T14:09:58;102681.06;;;24.84;29.80
59240;BME280;45010;53.640;10.578;2023-02-14T14:13:00;102682.31;;;24.89;29.73
59240;BME280;45010;53.640;10.578;2023-02-14T14:22:26;102683.97;;;24.90;30.22
59240;BME280;45010;53.640;10.578;2023-02-14T14:25:38;102666.69;;;24.85;30.24
59240;BME280;45010;53.640;10.578;2023-02-14T14:28:44;102664.19;;;24.84;30.24
59240;BME280;45010;53.640;10.578;2023-02-14T14:31:46;102676.44;;;24.93;30.43
59240;BME280;45010;53.640;10.578;2023-02-14T14:35:01;102649.38;;;24.81;30.53
59240;BME280;45010;53.640;10.578;2023-02-14T14:38:04;102673.56;;;24.95;30.32
59240;BME280;45010;53.640;10.578;2023-02-14T14:41:05;102668.88;;;24.97;30.48
59240;BME280;45010;53.640;10.578;2023-02-14T14:44:05;102674.22;;;24.97;30.41
59240;BME280;45010;53.640;10.578;2023-02-14T14:47:11;102673.22;;;24.98;30.52
59240;BME280;45010;53.640;10.578;2023-02-14T14:53:36;102654.53;;;24.98;30.55
59240;BME280;45010;53.640;10.578;2023-02-14T14:56:49;102661.50;;;24.99;30.60
59240;BME280;45010;53.640;10.578;2023-02-14T15:00:04;102662.41;;;25.06;30.69
59240;BME280;45010;53.640;10.578;2023-02-14T15:03:14;102649.47;;;25.03;30.65
59240;BME280;45010;53.640;10.578;2023-02-14T15:06:19;102648.44;;;25.04;30.59
59240;BME280;45010;53.640;10.578;2023-02-14T15:09:29;102648.44;;;25.04;30.64
59240;BME280;45010;53.640;10.578;2023-02-14T15:12:30;102648.53;;;25.11;30.66
59240;BME280;45010;53.640;10.578;2023-02-14T15:15:50;102643.19;;;25.11;30.69
59240;BME280;45010;53.640;10.578;2023-02-14T15:18:55;102639.69;;;25.10;30.75
59240;BME280;45010;53.640;10.578;2023-02-14T15:21:56;102640.69;;;25.09;31.02
59240;BME280;45010;53.640;10.578;2023-02-14T15:24:57;102644.00;;;25.11;30.93
59240;BME280;45010;53.640;10.578;2023-02-14T15:27:57;102641.97;;;25.14;30.87
59240;BME280;45010;53.640;10.578;2023-02-14T15:31:00;102624.69;;;25.09;30.91
59240;BME280;45010;53.640;10.578;2023-02-14T15:34:02;102636.63;;;25.14;31.13
59240;BME280;45010;53.640;10.578;2023-02-14T15:37:04;102616.94;;;25.15;31.28
59240;BME280;45010;53.640;10.578;2023-02-14T15:40:06;102615.66;;;25.10;31.25
59240;BME280;45010;53.640;10.578;2023-02-14T15:46:25;102617.31;;;25.11;31.16
59240;BME280;45010;53.640;10.578;2023-02-14T15:49:35;102613.06;;;25.17;31.15
59240;BME280;45010;53.640;10.578;2023-02-14T15:52:39;102614.72;;;25.18;31.18
59240;BME280;45010;53.640;10.578;2023-02-14T15:55:40;102611.22;;;25.18;31.38
59240;BME280;45010;53.640;10.578;2023-02-14T15:58:42;102600.91;;;25.15;31.14
59240;BME280;45010;53.640;10.578;2023-02-14T16:01:55;102577.00;;;25.06;31.10
59240;BME280;45010;53.640;10.578;2023-02-14T16:05:18;102604.47;;;25.22;31.17
59240;BME280;45010;53.640;10.578;2023-02-14T16:11:30;102612.50;;;25.22;31.32
59240;BME280;45010;53.640;10.578;2023-02-14T16:14:33;102590.88;;;25.17;31.08
59240;BME280;45010;53.640;10.578;2023-02-14T16:17:35;102588.19;;;25.17;31.08
59240;BME280;45010;53.640;10.578;2023-02-14T16:20:39;102606.13;;;25.23;31.34
59240;BME280;45010;53.640;10.578;2023-02-14T16:23:41;102581.97;;;25.09;31.36
59240;BME280;45010;53.640;10.578;2023-02-14T16:26:44;102587.00;;;25.19;31.33
59240;BME280;45010;53.640;10.578;2023-02-14T16:29:45;102605.94;;;25.24;31.31
59240;BME280;45010;53.640;10.578;2023-02-14T16:32:49;102601.41;;;25.25;31.21
59240;BME280;45010;53.640;10.578;2023-02-14T16:35:51;102583.03;;;25.15;31.30
59240;BME280;45010;53.640;10.578;2023-02-14T16:38:52;102588.19;;;25.17;31.26
59240;BME280;45010;53.640;10.578;2023-02-14T16:41:55;102592.78;;;25.23;31.14
59240;BME280;45010;53.640;10.578;2023-02-14T16:44:56;102594.81;;;25.21;31.35
59240;BME280;45010;53.640;10.578;2023-02-14T16:47:57;102596.06;;;25.25;31.49
59240;BME280;45010;53.640;10.578;2023-02-14T16:50:57;102598.56;;;25.27;31.50
59240;BME280;45010;53.640;10.578;2023-02-14T16:54:01;102583.47;;;25.19;31.40
59240;BME280;45010;53.640;10.578;2023-02-14T16:57:03;102590.38;;;25.28;31.61
59240;BME280;45010;53.640;10.578;2023-02-14T17:00:05;102593.66;;;25.30;31.77
59240;BME280;45010;53.640;10.578;2023-02-14T17:03:05;102592.03;;;25.29;31.90
59240;BME280;45010;53.640;10.578;2023-02-14T17:06:06;102593.03;;;25.28;31.46
59240;BME280;45010;53.640;10.578;2023-02-14T17:09:10;102594.06;;;25.27;31.50
59240;BME280;45010;53.640;10.578;2023-02-14T17:12:15;102592.41;;;25.26;31.50
59240;BME280;45010;53.640;10.578;2023-02-14T17:15:18;102590.75;;;25.25;31.49
59240;BME280;45010;53.640;10.578;2023-02-14T17:18:22;102595.44;;;25.23;31.54
59240;BME280;45010;53.640;10.578;2023-02-14T17:21:23;102591.13;;;25.22;31.87
59240;BME280;45010;53.640;10.578;2023-02-14T17:24:23;102593.97;;;25.20;31.78
59240;BME280;45010;53.640;10.578;2023-02-14T17:27:24;102597.69;;;25.19;31.71
59240;BME280;45010;53.640;10.578;2023-02-14T17:30:24;102600.53;;;25.18;31.52
59240;BME280;45010;53.640;10.578;2023-02-14T17:33:24;102600.53;;;25.18;31.66